Time;durP1;ratioP1;P1;durP2;ratioP2;P2;SDS_P1;SDS_P2;PMS_P1;PMS_P2;Temp;Humidity;BMP_temperature;BMP_pressure;BME280_temperature;BME280_humidity;BME280_pressure;Samples;Min_cycle;Max_cycle;Signal;HPM_P1;HPM_P2
2021/10/13 00:00:40;;;;;;;28.03;13.83;;;4.90;99.90;;;;;;4190343;28;20319;-63
2021/10/13 00:02:41;;;;;;;27.33;13.97;;;4.80;99.90;;;;;;4190607;28;20363;-68
2021/10/13 00:04:43;;;;;;;27.30;13.27;;;4.90;99.90;;;;;;4190903;28;20278;-62
2021/10/13 00:06:44;;;;;;;26.10;13.60;;;4.80;99.90;;;;;;4190761;28;20338;-70
2021/10/13 00:08:45;;;;;;;25.53;12.97;;;4.90;99.90;;;;;;4190816;28;20827;-65
2021/10/13 00:10:46;;;;;;;26.47;14.20;;;4.80;99.90;;;;;;4190667;28;20319;-72
2021/10/13 00:12:47;;;;;;;25.23;12.87;;;4.90;99.90;;;;;;4190094;28;20660;-63
2021/10/13 00:14:49;;;;;;;25.47;13.80;;;4.80;99.90;;;;;;4190902;28;20285;-67
2021/10/13 00:16:56;;;;;;;25.73;13.17;;;4.80;99.90;;;;;;4189872;28;20277;-63
2021/10/13 00:18:57;;;;;;;26.13;13.93;;;4.80;99.90;;;;;;4157765;28;20282;-62
2021/10/13 00:21:00;;;;;;;26.40;13.20;;;4.70;99.90;;;;;;4157277;28;20329;-63
2021/10/13 00:23:01;;;;;;;25.40;13.50;;;4.70;99.90;;;;;;4157985;28;21043;-73
2021/10/13 00:25:03;;;;;;;29.70;14.30;;;4.70;99.90;;;;;;4157103;28;21358;-62
2021/10/13 00:27:04;;;;;;;25.47;14.10;;;4.70;99.90;;;;;;4158167;28;20259;-63
2021/10/13 00:29:05;;;;;;;24.00;13.03;;;4.70;99.90;;;;;;4172650;28;20387;-62
2021/10/13 00:31:08;;;;;;;22.97;12.40;;;4.70;99.90;;;;;;4155881;28;20290;-62
2021/10/13 00:33:09;;;;;;;25.87;14.23;;;4.70;99.90;;;;;;4157306;28;20279;-62
2021/10/13 00:35:10;;;;;;;24.73;13.37;;;4.60;99.90;;;;;;4157810;28;21192;-71
2021/10/13 00:37:12;;;;;;;20.63;12.53;;;4.60;99.90;;;;;;4157373;28;20258;-68
2021/10/13 00:39:13;;;;;;;26.97;13.97;;;4.60;99.90;;;;;;4156883;28;20283;-62
2021/10/13 00:41:17;;;;;;;27.67;15.27;;;4.60;99.90;;;;;;4157443;28;20275;-63
2021/10/13 00:43:18;;;;;;;31.13;15.67;;;4.50;99.90;;;;;;4183072;28;20610;-62
2021/10/13 00:45:19;;;;;;;30.87;16.10;;;4.50;99.90;;;;;;4190652;28;20269;-63
2021/10/13 00:47:21;;;;;;;24.80;14.27;;;4.50;99.90;;;;;;4189372;28;20270;-62
2021/10/13 00:49:22;;;;;;;34.30;15.67;;;4.40;99.90;;;;;;4188670;28;20338;-62
2021/10/13 00:51:23;;;;;;;31.63;17.17;;;4.30;99.90;;;;;;4188941;28;20315;-67
2021/10/13 00:53:25;;;;;;;28.27;15.03;;;4.10;99.90;;;;;;4190133;28;20303;-66
2021/10/13 00:55:26;;;;;;;33.70;15.50;;;4.10;99.90;;;;;;4189294;28;20366;-63
2021/10/13 00:57:27;;;;;;;31.17;15.80;;;4.00;99.90;;;;;;4190163;28;20603;-65
2021/10/13 00:59:29;;;;;;;28.17;15.90;;;4.00;99.90;;;;;;4189549;28;20758;-66
2021/10/13 01:01:39;;;;;;;33.17;17.23;;;4.00;99.90;;;;;;4190229;28;20265;-64
2021/10/13 01:03:59;;;;;;;;;;;4.00;99.90;;;;;;4190093;28;20611;-63
2021/10/13 01:06:00;;;;;;;32.93;15.40;;;4.00;99.90;;;;;;4189487;28;19950;-63
2021/10/13 01:08:10;;;;;;;29.27;15.23;;;4.00;99.90;;;;;;4164639;28;20283;-65
2021/10/13 01:10:23;;;;;;;29.67;16.00;;;4.00;99.90;;;;;;4157204;28;20263;-63
2021/10/13 01:12:33;;;;;;;30.93;15.33;;;4.00;99.90;;;;;;4156346;28;20025;-62
2021/10/13 01:14:46;;;;;;;33.33;15.50;;;4.00;99.90;;;;;;4156506;28;20298;-64
2021/10/13 01:17:16;;;;;;;30.47;15.27;;;3.90;99.90;;;;;;4156177;28;20029;-73
2021/10/13 01:19:53;;;;;;;28.63;14.87;;;3.90;99.90;;;;;;4148499;28;20286;-72
2021/10/13 01:22:09;;;;;;;30.50;15.37;;;3.90;99.90;;;;;;4150918;28;20333;-71
2021/10/13 01:24:29;;;;;;;31.47;15.20;;;3.90;99.90;;;;;;4156622;28;20287;-70
2021/10/13 01:26:51;;;;;;;34.03;15.03;;;3.80;99.90;;;;;;4156160;28;20329;-68
2021/10/13 01:28:56;;;;;;;31.67;16.37;;;3.80;99.90;;;;;;4171443;28;20282;-63
2021/10/13 01:30:59;;;;;;;30.30;16.77;;;3.80;99.90;;;;;;4155773;28;20286;-63
2021/10/13 01:33:08;;;;;;;31.90;14.97;;;3.80;99.90;;;;;;4171546;28;20336;-69
2021/10/13 01:35:11;;;;;;;30.40;15.10;;;3.70;99.90;;;;;;4172545;28;20344;-63
2021/10/13 01:37:22;;;;;;;30.37;14.60;;;3.70;99.90;;;;;;4173097;28;20270;-63
2021/10/13 01:39:25;;;;;;;29.60;15.43;;;3.70;99.90;;;;;;4172502;28;20266;-68
2021/10/13 01:41:28;;;;;;;30.40;14.73;;;3.70;99.90;;;;;;4172663;28;20274;-64
2021/10/13 01:43:34;;;;;;;31.70;16.27;;;3.70;99.90;;;;;;4172153;28;20270;-62
2021/10/13 01:45:36;;;;;;;26.10;13.33;;;3.70;99.90;;;;;;4172872;28;20673;-64
2021/10/13 01:47:39;;;;;;;31.40;14.70;;;3.60;99.90;;;;;;4172234;28;20347;-74
2021/10/13 01:49:40;;;;;;;29.90;14.57;;;3.70;99.90;;;;;;4171851;28;20285;-67
2021/10/13 01:51:44;;;;;;;27.97;14.37;;;3.60;99.90;;;;;;4172133;28;20665;-68
2021/10/13 01:53:48;;;;;;;29.33;14.57;;;3.60;99.90;;;;;;4172814;28;20262;-67
2021/10/13 01:55:51;;;;;;;30.37;13.70;;;3.60;99.90;;;;;;4172472;28;20352;-63
2021/10/13 01:57:57;;;;;;;28.80;13.83;;;3.60;99.90;;;;;;4186128;28;20331;-68
2021/10/13 02:00:03;;;;;;;26.93;13.70;;;3.60;99.90;;;;;;4188647;28;20269;-62
2021/10/13 02:02:06;;;;;;;29.13;14.40;;;3.60;99.90;;;;;;4172594;28;20323;-70
2021/10/13 02:04:10;;;;;;;26.13;14.87;;;3.60;99.90;;;;;;4172326;28;21051;-61
2021/10/13 02:06:12;;;;;;;28.30;13.43;;;3.60;99.90;;;;;;4172505;28;20266;-61
2021/10/13 02:08:14;;;;;;;28.53;14.00;;;3.60;99.90;;;;;;4172134;28;20272;-62
2021/10/13 02:10:20;;;;;;;25.80;14.03;;;3.60;99.90;;;;;;4170897;28;20709;-62
2021/10/13 02:12:23;;;;;;;27.37;13.93;;;3.60;99.90;;;;;;4172284;28;20270;-67
2021/10/13 02:14:26;;;;;;;27.83;14.67;;;3.50;99.90;;;;;;4172102;28;20297;-62
2021/10/13 02:16:28;;;;;;;25.57;14.07;;;3.60;99.90;;;;;;4172281;28;20262;-62
2021/10/13 02:18:31;;;;;;;23.53;13.13;;;3.50;99.90;;;;;;4171854;28;20266;-62
2021/10/13 02:20:33;;;;;;;29.60;15.23;;;3.50;99.90;;;;;;4172559;28;20340;-65
2021/10/13 02:22:36;;;;;;;29.60;14.77;;;3.50;99.90;;;;;;4172995;28;20258;-62
2021/10/13 02:24:49;;;;;;;26.03;13.70;;;3.50;99.90;;;;;;4176782;28;20841;-68
2021/10/13 02:26:58;;;;;;;29.00;13.93;;;3.50;99.90;;;;;;4175134;28;20332;-65
2021/10/13 02:29:07;;;;;;;31.30;15.07;;;3.50;99.90;;;;;;4175636;28;20274;-62
2021/10/13 02:31:09;;;;;;;31.00;15.70;;;3.50;99.90;;;;;;4175305;28;20278;-63
2021/10/13 02:33:11;;;;;;;30.40;14.03;;;3.40;99.90;;;;;;4175884;28;20316;-64
2021/10/13 02:35:12;;;;;;;25.37;13.37;;;3.50;99.90;;;;;;4175176;28;20289;-63
2021/10/13 02:37:13;;;;;;;26.73;14.43;;;3.40;99.90;;;;;;4175844;28;20265;-62
2021/10/13 02:39:14;;;;;;;30.03;15.10;;;3.40;99.90;;;;;;4174914;28;20262;-62
2021/10/13 02:41:16;;;;;;;24.00;12.73;;;3.50;99.90;;;;;;4175262;28;20258;-65
2021/10/13 02:43:17;;;;;;;30.37;13.77;;;3.50;99.90;;;;;;4175265;28;20764;-63
2021/10/13 02:45:19;;;;;;;26.37;13.47;;;3.40;99.90;;;;;;4175398;28;20312;-61
2021/10/13 02:47:53;;;;;;;24.67;12.63;;;3.50;99.90;;;;;;4175440;28;20266;-63
2021/10/13 02:50:15;;;;;;;24.17;11.87;;;3.50;99.90;;;;;;4180141;28;20279;-71
2021/10/13 02:52:23;;;;;;;25.30;13.37;;;3.50;99.90;;;;;;4191204;28;20726;-62
2021/10/13 02:54:32;;;;;;;25.70;13.23;;;3.50;99.90;;;;;;4191830;28;20337;-63
2021/10/13 02:56:38;;;;;;;26.60;12.47;;;3.50;99.90;;;;;;4190568;28;20261;-64
2021/10/13 02:58:41;;;;;;;23.23;12.13;;;3.50;99.90;;;;;;4192194;28;20293;-62
2021/10/13 03:00:46;;;;;;;23.43;11.73;;;3.50;99.90;;;;;;4191186;28;20311;-62
2021/10/13 03:03:19;;;;;;;24.50;11.97;;;3.50;99.90;;;;;;4192119;28;20285;-61
2021/10/13 03:05:22;;;;;;;26.07;12.23;;;3.50;99.90;;;;;;4191189;28;20262;-61
2021/10/13 03:07:27;;;;;;;25.23;13.53;;;3.50;99.90;;;;;;4191720;28;20261;-63
2021/10/13 03:09:31;;;;;;;23.33;12.70;;;3.50;99.90;;;;;;4191299;28;20273;-69
2021/10/13 03:11:33;;;;;;;28.43;12.67;;;3.50;99.90;;;;;;4173862;28;20363;-62
2021/10/13 03:13:37;;;;;;;26.13;13.03;;;3.50;99.90;;;;;;4174780;28;20289;-62
2021/10/13 03:15:42;;;;;;;26.87;14.20;;;3.40;99.90;;;;;;4174732;28;20293;-62
2021/10/13 03:17:46;;;;;;;25.07;13.80;;;3.40;99.90;;;;;;4180053;28;20266;-67
2021/10/13 03:19:48;;;;;;;23.40;12.37;;;3.40;99.90;;;;;;4190640;28;20281;-62
2021/10/13 03:21:50;;;;;;;28.57;13.63;;;3.40;99.90;;;;;;4191130;28;20266;-67
2021/10/13 03:23:51;;;;;;;29.00;13.27;;;3.30;99.90;;;;;;4191363;28;20265;-64
2021/10/13 03:25:52;;;;;;;26.60;12.63;;;3.30;99.90;;;;;;4191046;28;20323;-61
2021/10/13 03:27:55;;;;;;;29.20;13.90;;;3.30;99.90;;;;;;4190842;28;20322;-62
2021/10/13 03:29:56;;;;;;;25.03;12.87;;;3.30;99.90;;;;;;4191212;28;20806;-62
2021/10/13 03:31:58;;;;;;;29.77;15.87;;;3.20;99.90;;;;;;4174638;28;20332;-62
2021/10/13 03:33:59;;;;;;;24.33;12.67;;;3.20;99.90;;;;;;4173664;28;20794;-63
2021/10/13 03:36:00;;;;;;;25.37;13.37;;;3.10;99.90;;;;;;4173991;28;20294;-64
2021/10/13 03:38:04;;;;;;;25.70;12.93;;;3.10;99.90;;;;;;4174683;28;20335;-61
2021/10/13 03:40:05;;;;;;;25.27;12.93;;;3.10;99.90;;;;;;4174192;28;21141;-62
2021/10/13 03:42:07;;;;;;;22.90;12.17;;;3.10;99.90;;;;;;4174629;28;20298;-61
2021/10/13 03:44:09;;;;;;;28.23;13.30;;;3.00;99.90;;;;;;4173960;28;20319;-61
2021/10/13 03:46:16;;;;;;;23.90;13.80;;;3.00;99.90;;;;;;4175377;28;20623;-62
2021/10/13 03:48:17;;;;;;;27.10;12.77;;;3.00;99.90;;;;;;4173923;28;20316;-62
2021/10/13 03:50:21;;;;;;;26.17;13.30;;;3.00;99.90;;;;;;4174839;28;20673;-62
2021/10/13 03:52:22;;;;;;;26.80;14.20;;;3.00;99.90;;;;;;4173657;28;20259;-63
2021/10/13 03:54:23;;;;;;;27.27;13.80;;;3.00;99.90;;;;;;4174090;28;20270;-63
2021/10/13 03:56:25;;;;;;;26.17;13.93;;;2.90;99.90;;;;;;4174383;28;20383;-63
2021/10/13 03:58:26;;;;;;;28.37;13.30;;;3.00;99.90;;;;;;4173367;28;20814;-62
2021/10/13 04:00:27;;;;;;;25.17;13.73;;;3.00;99.90;;;;;;4174760;28;20278;-64
2021/10/13 04:02:28;;;;;;;25.63;13.33;;;2.90;99.90;;;;;;4173422;28;20304;-63
2021/10/13 04:04:29;;;;;;;30.93;13.50;;;2.90;99.90;;;;;;4173355;28;20274;-62
2021/10/13 04:06:31;;;;;;;28.37;13.87;;;2.90;99.90;;;;;;4173839;28;20335;-63
2021/10/13 04:08:32;;;;;;;25.03;12.10;;;2.90;99.90;;;;;;4173478;28;20285;-63
2021/10/13 04:10:33;;;;;;;25.97;12.33;;;2.90;99.90;;;;;;4173334;28;20300;-63
2021/10/13 04:12:35;;;;;;;32.83;12.67;;;2.90;99.90;;;;;;4174978;28;20336;-63
2021/10/13 04:14:36;;;;;;;29.53;13.77;;;2.90;99.90;;;;;;4173363;28;20275;-67
2021/10/13 04:16:37;;;;;;;27.37;14.00;;;2.90;99.90;;;;;;4173419;28;20274;-63
2021/10/13 04:18:38;;;;;;;30.77;15.30;;;3.00;99.90;;;;;;4173115;28;20262;-63
2021/10/13 04:20:40;;;;;;;29.60;15.77;;;2.90;99.90;;;;;;4173749;28;20282;-63
2021/10/13 04:22:41;;;;;;;33.23;15.83;;;2.90;99.90;;;;;;4172934;28;20273;-67
2021/10/13 04:24:42;;;;;;;27.00;14.70;;;2.90;99.90;;;;;;4169114;28;20888;-67
2021/10/13 04:26:43;;;;;;;29.10;14.90;;;2.90;99.90;;;;;;4172910;28;20674;-65
2021/10/13 04:28:44;;;;;;;33.53;15.37;;;2.90;99.90;;;;;;4172895;28;20407;-62
2021/10/13 04:30:45;;;;;;;27.37;14.57;;;2.90;99.90;;;;;;4173278;28;20753;-63
2021/10/13 04:32:46;;;;;;;27.67;14.87;;;2.90;99.90;;;;;;4173398;28;20361;-63
2021/10/13 04:34:48;;;;;;;27.33;14.40;;;2.90;99.90;;;;;;4173176;28;20665;-66
2021/10/13 04:36:49;;;;;;;29.93;14.40;;;2.90;99.90;;;;;;4173389;28;20262;-70
2021/10/13 04:38:51;;;;;;;29.37;14.40;;;2.90;99.90;;;;;;4173881;28;20312;-63
2021/10/13 04:40:52;;;;;;;27.27;14.80;;;2.90;99.90;;;;;;4187714;28;20265;-63
2021/10/13 04:42:53;;;;;;;30.63;15.20;;;2.90;99.90;;;;;;4190191;28;20844;-62
2021/10/13 04:44:54;;;;;;;26.50;14.73;;;2.90;99.90;;;;;;4187351;28;20296;-64
2021/10/13 04:46:55;;;;;;;30.37;14.67;;;2.90;99.90;;;;;;4189684;28;20265;-63
2021/10/13 04:48:56;;;;;;;28.23;14.13;;;2.90;99.90;;;;;;4189318;28;20254;-66
2021/10/13 04:50:57;;;;;;;26.70;14.17;;;2.90;99.90;;;;;;4189308;28;20273;-67
2021/10/13 04:52:58;;;;;;;28.23;13.93;;;2.90;99.90;;;;;;4189710;28;20281;-62
2021/10/13 04:54:59;;;;;;;25.83;12.37;;;3.00;99.90;;;;;;4189525;28;20297;-67
2021/10/13 04:57:00;;;;;;;24.37;12.97;;;3.00;99.90;;;;;;4163894;28;20283;-68
2021/10/13 04:59:02;;;;;;;26.53;14.30;;;3.00;99.90;;;;;;4158454;28;20674;-63
2021/10/13 05:01:03;;;;;;;26.67;13.70;;;3.20;99.90;;;;;;4171268;28;20798;-64
2021/10/13 05:03:04;;;;;;;22.17;11.73;;;3.30;99.90;;;;;;4172882;28;20431;-65
2021/10/13 05:05:06;;;;;;;23.17;11.60;;;3.40;99.90;;;;;;4171968;28;20292;-64
2021/10/13 05:07:07;;;;;;;25.30;13.03;;;3.50;99.90;;;;;;4174092;28;20334;-64
2021/10/13 05:09:08;;;;;;;23.80;11.17;;;3.60;99.90;;;;;;4173429;28;20780;-64
2021/10/13 05:11:10;;;;;;;27.20;11.97;;;3.80;99.90;;;;;;4173887;28;20274;-61
2021/10/13 05:13:11;;;;;;;21.87;11.10;;;4.10;99.90;;;;;;4156667;28;20275;-66
2021/10/13 05:15:12;;;;;;;19.40;11.77;;;4.40;99.90;;;;;;4155400;28;20688;-62
2021/10/13 05:17:13;;;;;;;20.60;11.20;;;4.70;99.90;;;;;;4156815;28;20333;-65
2021/10/13 05:19:14;;;;;;;23.50;11.80;;;5.00;99.90;;;;;;4161289;28;20332;-62
2021/10/13 05:21:15;;;;;;;19.23;10.97;;;5.20;99.90;;;;;;4172769;28;20277;-62
2021/10/13 05:23:17;;;;;;;21.73;10.63;;;5.40;99.90;;;;;;4172824;28;20600;-69
2021/10/13 05:25:18;;;;;;;17.33;9.27;;;5.70;99.90;;;;;;4172711;28;20286;-62
2021/10/13 05:27:19;;;;;;;20.57;10.57;;;5.90;99.90;;;;;;4173305;28;20300;-63
2021/10/13 05:29:20;;;;;;;19.90;9.50;;;6.20;99.90;;;;;;4172799;28;20039;-64
2021/10/13 05:31:21;;;;;;;22.13;9.97;;;6.40;99.90;;;;;;4172538;28;20324;-67
2021/10/13 05:33:22;;;;;;;17.00;9.37;;;6.60;99.90;;;;;;4172613;28;20849;-72
2021/10/13 05:35:23;;;;;;;18.10;10.60;;;6.80;99.90;;;;;;4172780;28;20045;-66
2021/10/13 05:37:24;;;;;;;21.00;9.57;;;7.10;99.90;;;;;;4186224;28;20041;-63
2021/10/13 05:39:26;;;;;;;19.63;8.50;;;7.10;99.90;;;;;;4189097;28;20080;-63
2021/10/13 05:41:27;;;;;;;17.87;8.60;;;7.30;99.90;;;;;;4188707;28;20029;-64
2021/10/13 05:43:28;;;;;;;15.33;8.73;;;7.50;99.90;;;;;;4189696;28;20816;-66
2021/10/13 05:45:30;;;;;;;14.67;8.50;;;7.90;99.90;;;;;;4188178;28;20800;-69
2021/10/13 05:47:31;;;;;;;16.93;8.30;;;8.40;99.90;;;;;;4189629;28;20078;-66
2021/10/13 05:49:32;;;;;;;15.93;8.37;;;8.80;99.90;;;;;;4188726;28;20468;-62
2021/10/13 05:51:34;;;;;;;21.93;7.97;;;9.10;99.90;;;;;;4188981;28;20040;-65
2021/10/13 05:53:35;;;;;;;14.27;8.40;;;9.30;99.90;;;;;;4189078;28;20045;-63
2021/10/13 05:55:36;;;;;;;15.37;8.20;;;9.60;99.90;;;;;;4189096;28;20029;-67
2021/10/13 05:57:38;;;;;;;16.50;7.67;;;9.70;99.90;;;;;;4188559;28;20129;-66
2021/10/13 05:59:41;;;;;;;12.50;7.60;;;9.70;99.90;;;;;;4188667;28;20831;-66
2021/10/13 06:01:42;;;;;;;19.30;8.20;;;10.10;99.90;;;;;;4189376;28;20047;-64
2021/10/13 06:03:43;;;;;;;13.20;6.47;;;10.40;99.90;;;;;;4187038;28;20497;-69
2021/10/13 06:05:44;;;;;;;16.73;8.10;;;10.60;99.90;;;;;;4186604;28;20036;-66
2021/10/13 06:07:45;;;;;;;11.73;7.67;;;11.00;99.90;;;;;;4188079;28;20028;-66
2021/10/13 06:09:47;;;;;;;13.47;7.53;;;11.40;99.90;;;;;;4187816;28;20040;-66
2021/10/13 06:11:48;;;;;;;16.33;8.53;;;11.80;99.90;;;;;;4174557;28;20432;-61
2021/10/13 06:13:49;;;;;;;15.50;8.07;;;12.10;99.90;;;;;;4185329;28;20154;-64
2021/10/13 06:15:51;;;;;;;15.90;8.30;;;12.30;99.90;;;;;;4171240;28;20033;-65
2021/10/13 06:17:52;;;;;;;11.83;7.37;;;12.60;99.90;;;;;;4171910;28;20025;-63
2021/10/13 06:19:53;;;;;;;14.87;7.93;;;13.00;99.90;;;;;;4156567;28;20032;-62
2021/10/13 06:21:54;;;;;;;12.90;6.97;;;13.10;99.90;;;;;;4170441;28;20041;-65
2021/10/13 06:23:55;;;;;;;12.90;8.20;;;13.20;99.90;;;;;;4170094;28;20052;-62
2021/10/13 06:25:57;;;;;;;11.47;6.73;;;13.30;99.90;;;;;;4168752;28;20045;-63
2021/10/13 06:27:58;;;;;;;15.53;7.07;;;13.10;99.90;;;;;;4170046;28;20082;-65
2021/10/13 06:29:59;;;;;;;11.83;7.47;;;13.00;99.90;;;;;;4169983;28;20038;-64
2021/10/13 06:32:00;;;;;;;13.30;6.60;;;13.10;99.90;;;;;;4169589;28;20037;-62
2021/10/13 06:34:01;;;;;;;13.20;6.53;;;13.30;99.90;;;;;;4169041;28;20709;-64
2021/10/13 06:36:07;;;;;;;14.53;6.60;;;13.60;99.90;;;;;;4169987;28;20114;-63
2021/10/13 06:38:08;;;;;;;12.43;7.50;;;13.80;99.90;;;;;;4171404;28;20101;-65
2021/10/13 06:40:09;;;;;;;9.40;5.90;;;13.60;99.90;;;;;;4187207;28;20757;-62
2021/10/13 06:42:10;;;;;;;9.40;6.47;;;13.20;99.90;;;;;;4180683;28;20037;-64
2021/10/13 06:44:12;;;;;;;11.50;7.23;;;13.00;99.90;;;;;;4187247;28;20044;-65
2021/10/13 06:46:13;;;;;;;10.80;6.90;;;13.10;99.90;;;;;;4153222;28;20482;-66
2021/10/13 06:48:14;;;;;;;16.13;6.73;;;13.00;99.90;;;;;;4156868;28;20481;-63
2021/10/13 06:50:15;;;;;;;14.57;6.20;;;12.80;99.90;;;;;;4174139;28;20052;-62
2021/10/13 06:52:16;;;;;;;9.83;6.23;;;13.10;99.90;;;;;;4171262;28;20102;-62
2021/10/13 06:54:17;;;;;;;12.07;6.87;;;13.20;99.90;;;;;;4174283;28;20045;-65
2021/10/13 06:56:18;;;;;;;12.10;6.77;;;13.20;99.90;;;;;;4186108;28;20045;-63
2021/10/13 06:58:20;;;;;;;11.77;6.60;;;13.40;99.90;;;;;;4187351;28;20072;-64
2021/10/13 07:00:21;;;;;;;11.13;6.97;;;13.60;99.90;;;;;;4186171;28;20882;-66
2021/10/13 07:02:22;;;;;;;14.13;6.93;;;13.90;99.90;;;;;;4187962;28;20037;-63
2021/10/13 07:04:23;;;;;;;13.93;6.93;;;13.50;99.90;;;;;;4187889;28;20040;-64
2021/10/13 07:06:25;;;;;;;13.57;7.03;;;13.70;99.90;;;;;;4188071;28;20048;-63
2021/10/13 07:08:26;;;;;;;11.03;6.70;;;13.70;99.90;;;;;;4188953;28;20062;-71
2021/10/13 07:10:27;;;;;;;31.37;11.90;;;13.90;99.90;;;;;;4189525;28;20044;-64
2021/10/13 07:12:28;;;;;;;44.57;19.17;;;13.30;99.60;;;;;;4190654;28;20473;-63
2021/10/13 07:14:30;;;;;;;48.47;22.03;;;12.30;99.90;;;;;;4191364;28;20040;-63
2021/10/13 07:16:31;;;;;;;39.83;18.00;;;11.00;99.90;;;;;;4190779;28;20052;-68
2021/10/13 07:18:32;;;;;;;27.60;14.37;;;10.30;99.90;;;;;;4191426;28;20032;-69
2021/10/13 07:20:33;;;;;;;25.37;13.87;;;10.00;99.90;;;;;;4190712;28;20025;-62
2021/10/13 07:22:34;;;;;;;20.47;12.80;;;9.90;99.90;;;;;;4190834;28;20063;-62
2021/10/13 07:24:36;;;;;;;23.23;12.70;;;9.50;99.90;;;;;;4190955;28;20033;-65
2021/10/13 07:26:37;;;;;;;21.90;11.93;;;9.20;99.90;;;;;;4189736;28;20062;-62
2021/10/13 07:28:41;;;;;;;18.13;12.50;;;9.00;99.90;;;;;;4190741;28;20036;-63
2021/10/13 07:30:42;;;;;;;26.90;13.47;;;8.80;99.90;;;;;;4190719;28;20026;-63
2021/10/13 07:32:43;;;;;;;20.37;12.27;;;8.60;99.90;;;;;;4191048;28;20078;-64
2021/10/13 07:34:44;;;;;;;22.20;11.40;;;8.30;99.90;;;;;;4190332;28;20025;-64
2021/10/13 07:36:45;;;;;;;17.13;11.27;;;8.10;99.90;;;;;;4190932;28;20045;-61
2021/10/13 07:38:46;;;;;;;20.73;10.70;;;7.70;99.90;;;;;;4190284;28;20048;-69
2021/10/13 07:40:48;;;;;;;18.03;11.33;;;7.60;99.90;;;;;;4190449;28;20560;-62
2021/10/13 07:42:50;;;;;;;20.23;10.97;;;7.60;99.90;;;;;;4190493;28;20080;-62
2021/10/13 07:44:51;;;;;;;19.57;11.17;;;7.90;99.90;;;;;;4191113;28;20028;-65
2021/10/13 07:46:52;;;;;;;22.57;11.37;;;8.00;99.90;;;;;;4189762;28;20021;-66
2021/10/13 07:48:53;;;;;;;16.93;10.97;;;7.90;99.90;;;;;;4190788;28;20029;-65
2021/10/13 07:50:57;;;;;;;17.67;11.13;;;7.90;99.90;;;;;;4190024;28;20778;-66
2021/10/13 07:52:58;;;;;;;19.70;11.17;;;7.90;99.90;;;;;;4190629;28;20118;-62
2021/10/13 07:54:59;;;;;;;19.57;10.63;;;8.10;99.90;;;;;;4190508;28;20102;-63
2021/10/13 07:57:01;;;;;;;18.17;10.43;;;8.20;99.90;;;;;;4190362;28;20044;-63
2021/10/13 07:59:02;;;;;;;18.13;10.10;;;8.20;99.90;;;;;;4190092;28;20487;-63
2021/10/13 08:01:03;;;;;;;22.93;10.53;;;8.10;99.90;;;;;;4190347;28;20037;-62
2021/10/13 08:03:04;;;;;;;18.80;10.77;;;8.10;99.90;;;;;;4190866;28;20452;-62
2021/10/13 08:05:05;;;;;;;19.60;10.10;;;8.10;99.90;;;;;;4190111;28;20036;-62
2021/10/13 08:07:07;;;;;;;19.23;10.43;;;8.00;99.90;;;;;;4189610;28;20029;-64
2021/10/13 08:09:11;;;;;;;18.03;9.53;;;8.10;99.90;;;;;;4190013;28;20097;-62
2021/10/13 08:11:12;;;;;;;17.20;9.77;;;8.20;99.90;;;;;;4190155;28;20138;-63
2021/10/13 08:13:13;;;;;;;17.43;9.40;;;8.10;99.90;;;;;;4190045;28;20066;-63
2021/10/13 08:15:16;;;;;;;17.37;9.87;;;8.10;99.90;;;;;;4190730;28;20041;-62
2021/10/13 08:17:17;;;;;;;22.97;10.93;;;8.10;99.90;;;;;;4189544;28;20067;-62
2021/10/13 08:19:18;;;;;;;17.73;9.33;;;8.30;99.90;;;;;;4190261;28;20529;-63
2021/10/13 08:21:19;;;;;;;12.47;8.27;;;8.40;99.90;;;;;;4188548;28;20086;-64
2021/10/13 08:23:21;;;;;;;20.90;9.90;;;8.50;99.90;;;;;;4189946;28;20086;-62
2021/10/13 08:25:23;;;;;;;22.23;9.67;;;8.60;99.90;;;;;;4189559;28;20904;-68
2021/10/13 08:27:24;;;;;;;16.53;9.83;;;8.80;99.90;;;;;;4189880;28;20120;-62
2021/10/13 08:29:25;;;;;;;17.23;9.73;;;9.10;99.90;;;;;;4189506;28;20036;-64
2021/10/13 08:31:26;;;;;;;18.73;10.60;;;9.30;99.90;;;;;;4190319;28;20112;-62
2021/10/13 08:33:27;;;;;;;21.40;9.13;;;9.40;99.90;;;;;;4189336;28;20370;-62
2021/10/13 08:35:29;;;;;;;16.77;9.53;;;9.50;99.90;;;;;;4189287;28;20029;-65
2021/10/13 08:37:30;;;;;;;20.27;9.53;;;9.50;99.90;;;;;;4189295;28;20477;-64
2021/10/13 08:39:31;;;;;;;16.40;9.07;;;9.50;99.90;;;;;;4189518;28;20044;-64
2021/10/13 08:41:32;;;;;;;18.13;10.53;;;9.60;99.90;;;;;;4189858;28;20160;-65
2021/10/13 08:43:34;;;;;;;17.10;9.53;;;9.60;99.90;;;;;;4188902;28;20099;-63
2021/10/13 08:45:37;;;;;;;15.33;9.90;;;9.70;99.90;;;;;;4189682;28;20466;-63
2021/10/13 08:47:38;;;;;;;19.60;11.10;;;9.70;99.90;;;;;;4189219;28;20033;-67
2021/10/13 08:49:40;;;;;;;22.10;10.33;;;9.60;99.90;;;;;;4189879;28;20033;-68
2021/10/13 08:51:41;;;;;;;17.07;9.87;;;9.60;99.90;;;;;;4181036;28;20029;-63
2021/10/13 08:53:42;;;;;;;16.30;9.60;;;9.60;99.90;;;;;;4172646;28;20534;-65
2021/10/13 08:55:44;;;;;;;16.87;10.20;;;9.50;99.90;;;;;;4168525;28;20083;-63
2021/10/13 08:57:45;;;;;;;13.87;9.07;;;9.30;99.90;;;;;;4172571;28;20029;-65
2021/10/13 08:59:49;;;;;;;20.50;9.27;;;9.50;99.90;;;;;;4172346;28;20037;-63
2021/10/13 09:01:50;;;;;;;15.97;9.37;;;9.50;99.90;;;;;;4168563;28;20033;-65
2021/10/13 09:03:59;;;;;;;18.03;9.77;;;9.50;99.90;;;;;;4175703;28;20835;-63
2021/10/13 09:06:24;;;;;;;14.13;9.40;;;9.50;99.90;;;;;;4171124;28;20400;-64
2021/10/13 09:08:25;;;;;;;20.40;10.67;;;9.60;99.90;;;;;;4171442;28;20087;-63
2021/10/13 09:10:30;;;;;;;17.20;10.03;;;9.50;99.90;;;;;;4168578;28;20040;-62
2021/10/13 09:12:37;;;;;;;15.13;9.80;;;9.50;99.90;;;;;;4175177;28;20098;-62
2021/10/13 09:14:38;;;;;;;20.00;9.57;;;9.50;99.90;;;;;;4173416;28;20566;-63
2021/10/13 09:16:47;;;;;;;17.73;9.53;;;9.50;99.90;;;;;;4169827;28;20044;-62
2021/10/13 09:21:00;;;;;;;19.43;9.63;;;9.40;99.90;;;;;;4338471;22;20110;-60
2021/10/13 09:23:28;;;;;;;13.77;9.17;;;9.30;99.90;;;;;;4173071;28;20051;-60
2021/10/13 09:25:30;;;;;;;22.20;10.47;;;9.40;99.90;;;;;;4173093;28;20041;-61
2021/10/13 09:27:32;;;;;;;18.43;9.67;;;9.60;99.90;;;;;;4175586;28;20037;-59
2021/10/13 09:29:33;;;;;;;15.17;9.07;;;9.70;99.90;;;;;;4187578;28;20098;-55
2021/10/13 09:31:34;;;;;;;14.37;7.93;;;9.80;99.90;;;;;;4189490;28;20549;-57
2021/10/13 09:33:35;;;;;;;13.93;9.03;;;10.00;99.90;;;;;;4180901;28;20044;-60
2021/10/13 09:35:45;;;;;;;17.23;9.10;;;10.00;99.90;;;;;;4170860;28;20098;-62
2021/10/13 09:37:48;;;;;;;16.87;9.43;;;10.10;99.90;;;;;;4173159;28;20053;-59
2021/10/13 09:39:58;;;;;;;16.57;9.20;;;10.10;99.90;;;;;;4171563;28;20036;-61
2021/10/13 09:42:03;;;;;;;23.38;10.10;;;10.10;99.90;;;;;;4172439;28;20070;-59
2021/10/13 09:44:13;;;;;;;14.83;8.73;;;10.20;99.90;;;;;;4189835;28;20114;-60
2021/10/13 09:46:16;;;;;;;18.15;9.02;;;10.20;99.90;;;;;;4178849;28;20127;-59
2021/10/13 09:48:23;;;;;;;16.37;8.53;;;10.20;99.90;;;;;;4172577;28;20028;-60
2021/10/13 09:50:50;;;;;;;15.97;9.53;;;10.40;99.90;;;;;;4173827;28;20041;-61
2021/10/13 09:52:51;;;;;;;15.47;9.27;;;10.50;99.90;;;;;;4172518;28;20041;-60
2021/10/13 09:55:13;;;;;;;16.33;8.43;;;10.60;99.90;;;;;;4173813;28;20066;-63
2021/10/13 09:57:23;;;;;;;16.03;8.80;;;10.70;99.90;;;;;;4169540;28;20053;-68
2021/10/13 09:59:24;;;;;;;12.45;8.40;;;10.80;99.90;;;;;;4164866;28;20122;-59
2021/10/13 10:01:29;;;;;;;17.00;7.87;;;10.90;99.90;;;;;;4171854;28;20178;-57
2021/10/13 10:03:30;;;;;;;16.37;9.47;;;11.00;99.90;;;;;;4171643;28;20044;-60
2021/10/13 10:05:37;;;;;;;19.87;8.20;;;11.10;99.90;;;;;;4173197;28;20086;-58
2021/10/13 10:07:45;;;;;;;14.87;8.00;;;11.20;99.90;;;;;;4173032;28;20424;-59
2021/10/13 10:10:05;;;;;;;15.80;8.57;;;11.20;99.90;;;;;;4187313;28;20062;-61
2021/10/13 10:12:08;;;;;;;17.30;9.88;;;11.30;99.90;;;;;;4189634;28;20044;-58
2021/10/13 10:14:31;;;;;;;14.57;8.73;;;11.30;99.90;;;;;;4183692;28;20086;-60
2021/10/13 10:16:38;;;;;;;12.00;7.73;;;11.10;99.90;;;;;;4179303;28;20092;-60
2021/10/13 10:18:41;;;;;;;15.63;8.67;;;11.20;99.90;;;;;;4189366;28;20480;-59
2021/10/13 10:20:42;;;;;;;11.00;7.57;;;11.30;99.90;;;;;;4189450;28;20056;-60
2021/10/13 10:22:45;;;;;;;16.73;8.87;;;11.30;99.90;;;;;;4189288;28;20948;-60
2021/10/13 10:24:46;;;;;;;11.53;7.70;;;11.30;99.90;;;;;;4188100;28;20524;-60
2021/10/13 10:26:47;;;;;;;12.57;7.97;;;11.40;99.90;;;;;;4180433;28;20033;-60
2021/10/13 10:28:54;;;;;;;11.90;7.87;;;11.30;99.90;;;;;;4171997;28;20091;-67
2021/10/13 10:31:28;;;;;;;14.07;8.53;;;11.30;99.90;;;;;;4188982;28;20434;-60
2021/10/13 10:33:32;;;;;;;14.57;8.30;;;11.30;99.90;;;;;;4168609;28;20107;-59
2021/10/13 10:35:41;;;;;;;13.53;7.83;;;11.30;99.90;;;;;;4172563;28;20488;-60
2021/10/13 10:37:42;;;;;;;15.70;8.80;;;11.30;99.90;;;;;;4172902;28;20048;-60